createdAt,value
2023-04-19T00:00:44.365Z,9.90
2023-04-19T00:03:11.810Z,9.90
2023-04-19T00:05:42.959Z,9.90
2023-04-19T00:08:09.622Z,9.90
2023-04-19T00:10:36.487Z,10.00
2023-04-19T00:13:03.310Z,10.00
2023-04-19T00:15:38.701Z,10.00
2023-04-19T00:18:05.461Z,10.00
2023-04-19T00:20:32.501Z,10.00
2023-04-19T00:22:59.400Z,10.00
2023-04-19T00:25:26.274Z,10.00
2023-04-19T00:27:52.995Z,9.90
2023-04-19T00:30:19.749Z,9.90
2023-04-19T00:32:46.483Z,9.90
2023-04-19T00:35:13.370Z,9.90
2023-04-19T00:37:42.855Z,9.80
2023-04-19T00:40:09.925Z,9.80
2023-04-19T00:42:42.327Z,9.90
2023-04-19T00:45:12.251Z,9.90
2023-04-19T00:47:39.158Z,9.90
2023-04-19T00:50:06.758Z,9.80
2023-04-19T00:52:34.423Z,9.80
2023-04-19T00:55:02.167Z,9.80
2023-04-19T00:57:30.145Z,9.80
2023-04-19T00:59:57.818Z,9.80
2023-04-19T01:02:24.804Z,9.80
2023-04-19T01:04:51.867Z,9.80
2023-04-19T01:07:21.388Z,9.70
2023-04-19T01:09:48.068Z,9.70
2023-04-19T01:12:15.087Z,9.70
2023-04-19T01:14:42.119Z,9.70
2023-04-19T01:17:11.421Z,9.70
2023-04-19T01:19:38.606Z,9.70
2023-04-19T01:22:06.485Z,9.70
2023-04-19T01:24:34.029Z,9.70
2023-04-19T01:27:02.200Z,9.80
2023-04-19T01:29:28.933Z,9.80
2023-04-19T01:31:55.642Z,9.80
2023-04-19T01:34:25.081Z,9.80
2023-04-19T01:36:51.740Z,9.80
2023-04-19T01:39:18.636Z,9.70
2023-04-19T01:41:45.601Z,9.80
2023-04-19T01:44:12.582Z,9.70
2023-04-19T01:46:42.619Z,9.70
2023-04-19T01:49:09.664Z,9.70
2023-04-19T01:51:42.398Z,9.70
2023-04-19T01:54:09.032Z,9.70
2023-04-19T01:56:36.235Z,9.70
2023-04-19T01:59:04.058Z,9.70
2023-04-19T02:01:30.908Z,9.70
2023-04-19T02:04:00.209Z,9.60
2023-04-19T02:06:27.028Z,9.60
2023-04-19T02:08:53.693Z,9.60
2023-04-19T02:11:20.338Z,9.60
2023-04-19T02:13:46.969Z,9.60
2023-04-19T02:16:13.774Z,9.50
2023-04-19T02:18:41.481Z,9.50
2023-04-19T02:21:09.522Z,9.50
2023-04-19T02:23:36.459Z,9.50
2023-04-19T02:26:04.452Z,9.50
2023-04-19T02:28:31.755Z,9.50
2023-04-19T02:30:59.269Z,9.50
2023-04-19T02:33:29.560Z,9.50
2023-04-19T02:35:56.217Z,9.50
2023-04-19T02:38:25.706Z,9.50
2023-04-19T02:40:52.402Z,9.50
2023-04-19T02:43:19.117Z,9.50
2023-04-19T02:45:46.074Z,9.50
2023-04-19T02:48:13.157Z,9.50
2023-04-19T02:50:39.901Z,9.50
2023-04-19T02:53:07.416Z,9.50
2023-04-19T02:55:34.108Z,9.40
2023-04-19T02:58:01.086Z,9.40
2023-04-19T03:00:27.832Z,9.40
2023-04-19T03:02:57.729Z,9.30
2023-04-19T03:05:24.584Z,9.30
2023-04-19T03:07:51.310Z,9.30
2023-04-19T03:10:18.218Z,9.20
2023-04-19T03:12:44.935Z,9.20
2023-04-19T03:15:11.944Z,9.20
2023-04-19T03:17:38.711Z,9.20
2023-04-19T03:20:09.210Z,9.20
2023-04-19T03:22:38.218Z,9.10
2023-04-19T03:25:05.685Z,9.10
2023-04-19T03:27:35.680Z,9.00
2023-04-19T03:30:05.843Z,8.90
2023-04-19T03:32:33.015Z,8.80
2023-04-19T03:35:02.298Z,8.70
2023-04-19T03:37:28.978Z,8.60
2023-04-19T03:39:55.711Z,8.50
2023-04-19T03:42:22.416Z,8.50
2023-04-19T03:44:49.069Z,8.50
2023-04-19T03:47:15.843Z,8.40
2023-04-19T03:49:42.500Z,8.40
2023-04-19T03:52:09.339Z,8.30
2023-04-19T03:54:36.107Z,8.30
2023-04-19T03:57:02.779Z,8.30
2023-04-19T03:59:29.463Z,8.20
2023-04-19T04:01:59.152Z,8.20
2023-04-19T04:04:26.065Z,8.20
2023-04-19T04:06:52.913Z,8.20
2023-04-19T04:09:22.008Z,8.20
2023-04-19T04:11:48.964Z,8.10
2023-04-19T04:14:15.873Z,8.00
2023-04-19T04:16:42.939Z,8.00
2023-04-19T04:19:09.902Z,7.90
2023-04-19T04:21:36.971Z,7.90
2023-04-19T04:24:07.961Z,7.80
2023-04-19T04:26:35.268Z,7.80
2023-04-19T04:29:03.011Z,7.80
2023-04-19T04:31:29.775Z,7.80
2023-04-19T04:33:56.608Z,7.90
2023-04-19T04:36:23.648Z,7.90
2023-04-19T04:38:50.431Z,7.90
2023-04-19T04:41:17.149Z,8.00
2023-04-19T04:43:53.940Z,8.00
2023-04-19T04:46:31.630Z,8.00
2023-04-19T04:48:58.283Z,8.00
2023-04-19T04:51:25.096Z,8.10
2023-04-19T04:53:51.776Z,8.10
2023-04-19T04:56:18.521Z,8.10
2023-04-19T04:58:45.346Z,8.10
2023-04-19T05:01:14.830Z,8.20
2023-04-19T05:03:41.534Z,8.20
2023-04-19T05:06:08.617Z,8.30
2023-04-19T05:08:35.443Z,8.50
2023-04-19T05:11:02.380Z,8.70
2023-04-19T05:13:29.076Z,8.90
2023-04-19T05:15:56.032Z,9.00
2023-04-19T05:18:22.896Z,9.20
2023-04-19T05:20:50.014Z,9.20
2023-04-19T05:23:16.909Z,9.30
2023-04-19T05:25:43.624Z,9.40
2023-04-19T05:28:10.628Z,9.50
2023-04-19T05:30:37.465Z,9.60
2023-04-19T05:33:05.229Z,9.70
2023-04-19T05:35:31.983Z,9.70
2023-04-19T05:37:58.769Z,9.70
2023-04-19T05:40:25.836Z,9.80
2023-04-19T05:42:52.952Z,9.90
2023-04-19T05:45:19.794Z,9.90
2023-04-19T05:47:48.840Z,10.00
2023-04-19T05:50:17.896Z,10.00
2023-04-19T05:52:44.672Z,10.10
2023-04-19T05:55:11.345Z,10.20
2023-04-19T05:57:38.149Z,10.30
2023-04-19T06:00:05.911Z,10.40
2023-04-19T06:02:32.750Z,10.50
2023-04-19T06:05:02.752Z,10.70
2023-04-19T06:07:40.136Z,10.90
2023-04-19T06:10:10.819Z,11.10
2023-04-19T06:12:37.554Z,11.80
2023-04-19T06:15:04.944Z,12.40
2023-04-19T06:17:31.732Z,13.00
2023-04-19T06:20:02.029Z,13.30
2023-04-19T06:22:28.787Z,13.80
2023-04-19T06:24:55.563Z,13.90
2023-04-19T06:27:22.381Z,13.90
2023-04-19T06:29:50.997Z,13.60
2023-04-19T06:32:18.054Z,12.80
2023-04-19T06:34:44.865Z,12.70
2023-04-19T06:37:11.602Z,12.60
2023-04-19T06:39:38.365Z,12.60
2023-04-19T06:42:05.578Z,12.90
2023-04-19T06:44:32.342Z,12.90
2023-04-19T06:47:01.842Z,12.90
2023-04-19T06:49:28.718Z,13.00
2023-04-19T06:51:55.399Z,13.10
2023-04-19T06:54:24.026Z,12.80
2023-04-19T06:56:50.768Z,12.70
2023-04-19T06:59:21.831Z,12.40
2023-04-19T07:01:49.050Z,12.20
2023-04-19T07:04:16.638Z,12.00
2023-04-19T07:06:49.925Z,11.90
2023-04-19T07:09:17.016Z,11.90
2023-04-19T07:11:43.720Z,11.90
2023-04-19T07:14:10.558Z,11.90
2023-04-19T07:16:37.598Z,11.90
2023-04-19T07:19:04.366Z,12.00
2023-04-19T07:21:33.450Z,12.10
2023-04-19T07:24:00.409Z,12.20
2023-04-19T07:26:27.112Z,12.30
2023-04-19T07:28:53.897Z,12.20
2023-04-19T07:31:21.419Z,12.20
2023-04-19T07:33:48.188Z,12.30
2023-04-19T07:36:14.929Z,12.30
2023-04-19T07:38:44.956Z,12.00
2023-04-19T07:41:11.683Z,12.10
2023-04-19T07:43:39.278Z,12.10
2023-04-19T07:46:11.444Z,12.10
2023-04-19T07:48:38.543Z,12.20
2023-04-19T07:51:13.406Z,12.20
2023-04-19T07:53:44.182Z,12.30
2023-04-19T07:56:13.096Z,12.50
2023-04-19T07:58:41.510Z,12.60
2023-04-19T08:01:08.677Z,12.60
2023-04-19T08:03:36.380Z,12.60
2023-04-19T08:06:09.901Z,12.70
2023-04-19T08:08:37.174Z,12.60
2023-04-19T08:11:04.820Z,12.70
2023-04-19T08:13:31.801Z,12.60
2023-04-19T08:18:32.120Z,12.60
2023-04-19T08:20:58.937Z,12.70
2023-04-19T08:23:34.920Z,12.90
2023-04-19T08:26:04.801Z,13.20
2023-04-19T08:28:31.509Z,13.40
2023-04-19T08:30:59.361Z,13.50
2023-04-19T08:33:26.077Z,13.90
2023-04-19T08:35:52.722Z,14.10
2023-04-19T08:38:19.368Z,13.70
2023-04-19T08:40:51.531Z,13.80
2023-04-19T08:43:20.094Z,14.00
2023-04-19T08:45:48.426Z,14.00
2023-04-19T08:48:16.619Z,14.10
2023-04-19T08:50:56.434Z,14.20
2023-04-19T08:53:31.299Z,14.20
2023-04-19T08:56:12.739Z,14.40
2023-04-19T08:59:00.329Z,14.70
2023-04-19T09:01:34.883Z,14.70
2023-04-19T09:04:27.121Z,14.90
2023-04-19T09:06:55.164Z,14.80
2023-04-19T09:09:35.528Z,14.60
2023-04-19T09:12:17.686Z,14.60
2023-04-19T09:17:17.973Z,14.60
2023-04-19T09:19:49.088Z,14.40
2023-04-19T09:22:17.254Z,14.20
2023-04-19T09:27:19.067Z,14.50
2023-04-19T09:29:54.630Z,14.50
2023-04-19T09:32:23.492Z,14.60
2023-04-19T09:34:58.662Z,14.70
2023-04-19T09:39:56.536Z,14.80
2023-04-19T09:42:42.394Z,15.10
2023-04-19T09:47:40.440Z,16.10
2023-04-19T09:50:22.829Z,15.80
2023-04-19T09:52:52.853Z,16.10
2023-04-19T09:55:27.549Z,16.00
2023-04-19T09:57:55.692Z,15.80
2023-04-19T10:00:23.129Z,15.90
2023-04-19T10:02:58.333Z,16.20
2023-04-19T10:05:26.452Z,16.50
2023-04-19T10:07:59.402Z,17.00
2023-04-19T10:13:15.973Z,18.60
2023-04-19T10:15:52.464Z,19.00
2023-04-19T10:18:24.840Z,18.90
2023-04-19T10:21:08.234Z,18.70
2023-04-19T10:23:38.073Z,18.70
2023-04-19T10:26:13.599Z,18.80
2023-04-19T10:28:42.089Z,18.70
2023-04-19T10:31:12.929Z,18.40
2023-04-19T10:33:41.003Z,17.90
2023-04-19T10:36:14.674Z,17.50
2023-04-19T10:38:50.155Z,16.50
2023-04-19T10:41:18.509Z,16.40
2023-04-19T10:43:48.453Z,16.50
2023-04-19T10:46:28.970Z,16.50
2023-04-19T10:48:59.397Z,16.40
2023-04-19T10:51:30.011Z,16.30
2023-04-19T10:54:01.694Z,16.40
2023-04-19T10:56:34.412Z,16.40
2023-04-19T10:59:21.509Z,16.40
2023-04-19T11:01:59.578Z,16.50
2023-04-19T11:04:30.064Z,16.50
2023-04-19T11:07:04.237Z,17.00
2023-04-19T11:09:34.657Z,17.50
2023-04-19T11:12:12.723Z,17.50
2023-04-19T11:14:59.957Z,17.20
2023-04-19T11:17:33.953Z,17.30
2023-04-19T11:20:09.471Z,16.60
2023-04-19T11:22:47.209Z,16.60
2023-04-19T11:25:19.586Z,16.10
2023-04-19T11:27:53.754Z,16.40
2023-04-19T11:30:22.979Z,17.30
2023-04-19T11:32:52.849Z,17.90
2023-04-19T11:35:21.813Z,18.30
2023-04-19T11:37:48.938Z,17.90
2023-04-19T11:40:17.282Z,17.70
2023-04-19T11:42:44.750Z,17.60
2023-04-19T11:45:25.923Z,17.30
2023-04-19T11:47:56.923Z,17.30
2023-04-19T11:50:50.059Z,17.80
2023-04-19T11:53:27.590Z,17.30
2023-04-19T11:55:56.099Z,17.00
2023-04-19T11:58:43.044Z,17.10
2023-04-19T12:01:14.552Z,17.00
2023-04-19T12:03:46.003Z,17.30
2023-04-19T12:06:31.932Z,17.10
2023-04-19T12:08:58.989Z,17.20
2023-04-19T12:11:44.789Z,17.00
2023-04-19T12:14:19.870Z,17.10
2023-04-19T12:16:47.106Z,17.10
2023-04-19T12:19:20.278Z,17.40
2023-04-19T12:21:47.429Z,17.50
2023-04-19T12:24:17.563Z,16.90
2023-04-19T12:26:56.174Z,17.00
2023-04-19T12:29:23.363Z,17.30
2023-04-19T12:31:50.185Z,17.00
2023-04-19T12:34:19.211Z,17.00
2023-04-19T12:36:48.261Z,17.20
2023-04-19T12:39:15.202Z,17.10
2023-04-19T12:41:42.444Z,17.50
2023-04-19T12:44:09.091Z,17.80
2023-04-19T12:46:36.702Z,17.70
2023-04-19T12:49:03.388Z,17.60
2023-04-19T12:51:30.508Z,17.90
2023-04-19T12:53:57.442Z,18.10
2023-04-19T12:56:24.101Z,18.30
2023-04-19T12:58:51.087Z,18.30
2023-04-19T13:01:17.790Z,18.10
2023-04-19T13:03:44.718Z,18.60
2023-04-19T13:06:14.731Z,18.90
2023-04-19T13:08:46.270Z,19.00
2023-04-19T13:11:15.644Z,19.10
2023-04-19T13:13:42.347Z,18.60
2023-04-19T13:16:09.154Z,19.10
2023-04-19T13:18:35.969Z,19.30
2023-04-19T13:21:02.678Z,19.40
2023-04-19T13:23:29.472Z,19.00
2023-04-19T13:25:56.247Z,19.40
2023-04-19T13:28:22.995Z,19.20
2023-04-19T13:30:49.862Z,19.00
2023-04-19T13:33:16.572Z,19.10
2023-04-19T13:35:44.902Z,18.60
2023-04-19T13:38:11.627Z,18.90
2023-04-19T13:40:38.422Z,19.10
2023-04-19T13:43:05.127Z,19.80
2023-04-19T13:45:32.099Z,20.50
2023-04-19T13:47:58.808Z,20.70
2023-04-19T13:50:27.536Z,20.70
2023-04-19T13:52:54.250Z,20.20
2023-04-19T13:55:29.406Z,19.40
2023-04-19T13:57:56.241Z,20.10
2023-04-19T14:00:23.014Z,20.50
2023-04-19T14:02:52.088Z,20.70
2023-04-19T14:05:19.232Z,20.30
2023-04-19T14:07:48.587Z,20.70
2023-04-19T14:10:15.628Z,20.30
2023-04-19T14:12:42.308Z,19.80
2023-04-19T14:15:09.342Z,20.20
2023-04-19T14:17:36.289Z,20.40
2023-04-19T14:20:06.374Z,20.60
2023-04-19T14:22:35.110Z,19.80
2023-04-19T14:25:04.927Z,19.80
2023-04-19T14:27:32.036Z,19.70
2023-04-19T14:29:58.972Z,19.60
2023-04-19T14:32:26.945Z,20.10
2023-04-19T14:34:55.105Z,20.30
2023-04-19T14:37:23.385Z,20.40
2023-04-19T14:39:50.127Z,19.80
2023-04-19T14:42:16.802Z,19.20
2023-04-19T14:44:43.963Z,19.30
2023-04-19T14:47:10.988Z,20.30
2023-04-19T14:49:37.686Z,19.40
2023-04-19T14:52:05.168Z,19.70
2023-04-19T14:54:31.895Z,19.30
2023-04-19T14:56:58.932Z,19.10
2023-04-19T14:59:27.129Z,19.30
2023-04-19T15:01:54.980Z,20.30
2023-04-19T15:04:26.976Z,20.20
2023-04-19T15:06:53.859Z,19.80
2023-04-19T15:09:20.545Z,19.20
2023-04-19T15:11:50.304Z,19.70
2023-04-19T15:14:19.300Z,20.00
2023-04-19T15:16:46.709Z,20.30
2023-04-19T15:19:13.444Z,20.70
2023-04-19T15:21:40.223Z,19.60
2023-04-19T15:24:08.053Z,19.20
2023-04-19T15:26:35.521Z,19.00
2023-04-19T15:29:02.187Z,19.40
2023-04-19T15:31:28.909Z,18.60
2023-04-19T15:33:55.698Z,18.30
2023-04-19T15:36:22.481Z,19.00
2023-04-19T15:38:49.147Z,19.50
2023-04-19T15:41:17.308Z,20.10
2023-04-19T15:43:44.062Z,19.70
2023-04-19T15:46:14.441Z,20.50
2023-04-19T15:48:42.163Z,20.90
2023-04-19T15:51:08.866Z,20.10
2023-04-19T15:53:36.199Z,19.20
2023-04-19T15:56:03.816Z,19.60
2023-04-19T15:58:30.515Z,20.00
2023-04-19T16:00:57.221Z,20.10
2023-04-19T16:03:24.373Z,20.30
2023-04-19T16:05:51.734Z,20.50
2023-04-19T16:08:20.256Z,19.60
2023-04-19T16:10:47.636Z,18.90
2023-04-19T16:13:15.929Z,18.30
2023-04-19T16:15:43.770Z,18.60
2023-04-19T16:18:11.031Z,18.70
2023-04-19T16:20:37.995Z,18.70
2023-04-19T16:23:04.680Z,18.10
2023-04-19T16:25:32.618Z,17.70
2023-04-19T16:28:00.802Z,17.40
2023-04-19T16:30:30.817Z,17.40
2023-04-19T16:32:58.382Z,17.60
2023-04-19T16:35:26.465Z,17.80
2023-04-19T16:37:55.920Z,17.50
2023-04-19T16:40:24.180Z,16.50
2023-04-19T16:42:50.921Z,16.30
2023-04-19T16:45:18.222Z,16.10
2023-04-19T16:47:46.148Z,16.00
2023-04-19T16:50:14.216Z,15.80
2023-04-19T16:52:41.405Z,15.50
2023-04-19T16:55:08.519Z,15.40
2023-04-19T16:57:39.070Z,15.00
2023-04-19T17:00:09.641Z,14.70
2023-04-19T17:02:36.557Z,14.20
2023-04-19T17:05:03.902Z,13.90
2023-04-19T17:07:30.955Z,14.20
2023-04-19T17:09:58.853Z,14.50
2023-04-19T17:12:28.069Z,14.20
2023-04-19T17:14:54.714Z,13.50
2023-04-19T17:17:21.426Z,13.20
2023-04-19T17:19:48.205Z,12.90
2023-04-19T17:22:16.017Z,12.60
2023-04-19T17:24:42.738Z,12.50
2023-04-19T17:27:12.115Z,12.30
2023-04-19T17:29:38.910Z,12.20
2023-04-19T17:32:06.535Z,12.10
2023-04-19T17:34:36.107Z,12.00
2023-04-19T17:37:03.607Z,12.00
2023-04-19T17:39:30.582Z,12.00
2023-04-19T17:42:00.338Z,12.10
2023-04-19T17:44:27.117Z,12.00
2023-04-19T17:46:56.467Z,11.90
2023-04-19T17:49:23.347Z,11.90
2023-04-19T17:51:50.042Z,11.70
2023-04-19T17:54:17.301Z,11.50
2023-04-19T17:56:44.019Z,11.40
2023-04-19T17:59:10.733Z,11.30
2023-04-19T18:01:38.057Z,11.30
2023-04-19T18:04:05.580Z,11.20
2023-04-19T18:06:32.649Z,11.20
2023-04-19T18:08:59.649Z,11.10
2023-04-19T18:11:28.314Z,11.00
2023-04-19T18:13:55.647Z,11.00
2023-04-19T18:16:22.536Z,10.90
2023-04-19T18:18:49.213Z,10.80
2023-04-19T18:21:19.006Z,10.70
2023-04-19T18:23:45.924Z,10.70
2023-04-19T18:26:15.610Z,10.60
2023-04-19T18:28:42.418Z,10.50
2023-04-19T18:31:15.061Z,10.40
2023-04-19T18:33:41.708Z,10.30
2023-04-19T18:36:08.442Z,10.20
2023-04-19T18:38:35.468Z,10.10
2023-04-19T18:41:02.159Z,10.00
2023-04-19T18:43:30.530Z,10.00
2023-04-19T18:46:01.322Z,10.00
2023-04-19T18:48:29.515Z,9.90
2023-04-19T18:51:01.399Z,9.80
2023-04-19T18:53:29.439Z,9.70
2023-04-19T18:55:59.555Z,9.60
2023-04-19T18:58:27.227Z,9.40
2023-04-19T19:00:54.797Z,9.30
2023-04-19T19:03:48.340Z,9.10
2023-04-19T19:06:10.749Z,9.00
2023-04-19T19:08:37.794Z,8.90
2023-04-19T19:11:32.913Z,8.90
2023-04-19T19:13:55.015Z,8.80
2023-04-19T19:16:21.731Z,8.60
2023-04-19T19:18:48.551Z,8.50
2023-04-19T19:21:15.386Z,8.40
2023-04-19T19:23:42.821Z,8.30
2023-04-19T19:26:13.111Z,8.20
2023-04-19T19:28:40.318Z,8.10
2023-04-19T19:31:09.611Z,8.00
2023-04-19T19:36:04.882Z,7.90
2023-04-19T19:38:31.718Z,7.90
2023-04-19T19:41:49.063Z,7.90
2023-04-19T19:43:48.032Z,7.90
2023-04-19T19:46:15.394Z,8.00
2023-04-19T19:48:42.678Z,8.10
2023-04-19T19:51:41.765Z,8.20
2023-04-19T19:53:56.602Z,8.10
2023-04-19T19:56:24.508Z,8.10
2023-04-19T19:58:54.252Z,8.10
2023-04-19T20:01:22.459Z,8.00
2023-04-19T20:03:50.079Z,8.00
2023-04-19T20:07:13.574Z,7.90
2023-04-19T20:09:04.417Z,7.80
2023-04-19T20:11:31.271Z,7.60
2023-04-19T20:14:05.385Z,7.60
2023-04-19T20:16:35.440Z,7.60
2023-04-19T20:19:09.628Z,7.60
2023-04-19T20:21:40.466Z,7.60
2023-04-19T20:24:07.809Z,7.60
2023-04-19T20:26:34.658Z,7.40
2023-04-19T20:29:01.770Z,7.40
2023-04-19T20:31:29.150Z,7.40
2023-04-19T20:33:56.226Z,7.40
2023-04-19T20:36:23.374Z,7.40
2023-04-19T20:38:51.081Z,7.30
2023-04-19T20:41:18.980Z,7.30
2023-04-19T20:43:45.787Z,7.20
2023-04-19T20:46:12.568Z,7.10
2023-04-19T20:48:41.671Z,7.10
2023-04-19T20:51:08.534Z,7.00
2023-04-19T20:53:35.574Z,7.10
2023-04-19T20:56:05.350Z,7.00
2023-04-19T20:58:33.366Z,6.90
2023-04-19T21:01:00.226Z,6.80
2023-04-19T21:03:27.069Z,6.70
2023-04-19T21:05:54.073Z,6.80
2023-04-19T21:08:20.936Z,6.70
2023-04-19T21:10:47.636Z,6.50
2023-04-19T21:13:14.584Z,6.40
2023-04-19T21:15:41.591Z,6.30
2023-04-19T21:18:10.898Z,6.20
2023-04-19T21:20:37.945Z,6.10
2023-04-19T21:23:07.524Z,6.10
2023-04-19T21:25:34.332Z,6.00
2023-04-19T21:28:01.187Z,6.00
2023-04-19T21:30:27.867Z,5.90
2023-04-19T21:32:54.595Z,5.80
2023-04-19T21:35:21.481Z,5.70
2023-04-19T21:37:51.248Z,5.60
2023-04-19T21:40:17.935Z,5.50
2023-04-19T21:42:44.622Z,5.40
2023-04-19T21:45:14.023Z,5.40
2023-04-19T21:47:40.753Z,5.30
2023-04-19T21:50:08.335Z,5.30
2023-04-19T21:52:35.393Z,5.30
2023-04-19T21:55:04.701Z,5.30
2023-04-19T21:57:32.118Z,5.40
2023-04-19T22:00:01.194Z,5.50
2023-04-19T22:02:28.024Z,5.70
2023-04-19T22:04:54.940Z,5.70
2023-04-19T22:07:24.068Z,5.60
2023-04-19T22:09:50.886Z,5.70
2023-04-19T22:12:17.638Z,5.70
2023-04-19T22:14:47.188Z,5.70
2023-04-19T22:17:14.223Z,5.80
2023-04-19T22:19:40.880Z,5.80
2023-04-19T22:22:09.564Z,5.80
2023-04-19T22:24:49.929Z,5.60
2023-04-19T22:27:26.322Z,5.60
2023-04-19T22:29:53.313Z,5.60
2023-04-19T22:32:20.114Z,5.70
2023-04-19T22:34:46.857Z,5.70
2023-04-19T22:37:13.554Z,5.70
2023-04-19T22:39:40.462Z,5.70
2023-04-19T22:42:07.130Z,5.60
2023-04-19T22:44:33.871Z,5.60
2023-04-19T22:47:00.608Z,5.60
2023-04-19T22:49:29.958Z,5.50
2023-04-19T22:51:58.426Z,5.50
2023-04-19T22:54:25.787Z,5.50
2023-04-19T22:56:52.532Z,5.50
2023-04-19T22:59:19.439Z,5.50
2023-04-19T23:01:47.242Z,5.40
2023-04-19T23:04:14.684Z,5.40
2023-04-19T23:06:44.620Z,5.30
2023-04-19T23:09:13.710Z,5.30
2023-04-19T23:11:41.179Z,5.30
2023-04-19T23:14:10.617Z,5.20
2023-04-19T23:16:38.688Z,5.20
2023-04-19T23:19:09.733Z,5.10
2023-04-19T23:21:37.278Z,5.10
2023-04-19T23:24:04.284Z,5.00
2023-04-19T23:26:30.995Z,4.80
2023-04-19T23:28:57.625Z,4.80
2023-04-19T23:31:24.339Z,4.90
2023-04-19T23:33:51.113Z,5.00
2023-04-19T23:36:17.796Z,5.00
2023-04-19T23:38:44.513Z,5.00
2023-04-19T23:41:12.635Z,5.00
2023-04-19T23:43:39.280Z,5.00
2023-04-19T23:46:07.046Z,5.00
2023-04-19T23:48:33.945Z,4.90
2023-04-19T23:51:01.389Z,4.80
2023-04-19T23:53:28.086Z,4.90
2023-04-19T23:55:54.831Z,4.80
2023-04-19T23:58:23.682Z,4.70
